createdAt,value
2019-05-01T00:01:00.140Z,101364.27
2019-05-01T00:03:48.813Z,101360.77
2019-05-01T00:06:21.363Z,101362.95
2019-05-01T00:08:52.283Z,101373.02
2019-05-01T00:11:23.192Z,101368.65
2019-05-01T00:13:54.129Z,101365.15
2019-05-01T00:16:25.038Z,101361.66
2019-05-01T00:18:56.014Z,101366.02
2019-05-01T00:21:26.931Z,101365.16
2019-05-01T00:23:57.842Z,101359.95
2019-05-01T00:26:29.225Z,101354.29
2019-05-01T00:29:00.128Z,101354.70
2019-05-01T00:31:31.111Z,101349.94
2019-05-01T00:34:02.021Z,101342.48
2019-05-01T00:36:33.699Z,101344.25
2019-05-01T00:39:06.246Z,101336.83
2019-05-01T00:41:37.186Z,101338.16
2019-05-01T00:44:08.100Z,101343.39
2019-05-01T00:46:39.008Z,101346.84
2019-05-01T00:49:09.915Z,101344.24
2019-05-01T00:51:40.845Z,101345.98
2019-05-01T00:54:11.767Z,101343.80
2019-05-01T00:56:47.034Z,101341.61
2019-05-01T00:59:28.560Z,101341.19
2019-05-01T01:02:01.097Z,101335.06
2019-05-01T01:04:32.058Z,101333.33
2019-05-01T01:07:03.176Z,101334.64
2019-05-01T01:09:34.088Z,101328.52
2019-05-01T01:12:04.996Z,101332.00
2019-05-01T01:14:35.902Z,101331.14
2019-05-01T01:17:06.805Z,101322.84
2019-05-01T01:19:37.735Z,101323.27
2019-05-01T01:22:08.640Z,101324.58
2019-05-01T01:24:39.544Z,101319.78
2019-05-01T01:27:10.444Z,101317.61
2019-05-01T01:29:41.349Z,101317.60
2019-05-01T01:32:12.247Z,101318.92
2019-05-01T01:34:43.182Z,101311.51
2019-05-01T01:37:14.101Z,101313.24
2019-05-01T01:39:44.983Z,101304.09
2019-05-01T01:42:16.082Z,101301.48
2019-05-01T01:45:00.759Z,101298.88
2019-05-01T01:47:31.661Z,101301.03
2019-05-01T01:50:02.607Z,101296.23
2019-05-01T01:52:33.962Z,101296.24
2019-05-01T01:55:05.902Z,101294.92
2019-05-01T01:57:36.899Z,101287.52
2019-05-01T02:00:09.632Z,101292.75
2019-05-01T02:02:42.203Z,101290.14
2019-05-01T02:05:14.759Z,101292.73
2019-05-01T02:07:45.667Z,101285.78
2019-05-01T02:10:16.616Z,101280.55
2019-05-01T02:12:47.481Z,101277.91
2019-05-01T02:15:18.450Z,101280.53
2019-05-01T02:17:49.359Z,101275.30
2019-05-01T02:20:21.940Z,101277.91
2019-05-01T02:22:53.130Z,101269.19
2019-05-01T02:25:24.209Z,101271.39
2019-05-01T02:28:02.429Z,101267.46
2019-05-01T02:30:33.914Z,101271.81
2019-05-01T02:33:04.834Z,101263.08
2019-05-01T02:35:35.981Z,101270.94
2019-05-01T02:38:06.889Z,101265.71
2019-05-01T02:40:51.502Z,101270.08
2019-05-01T02:43:22.409Z,101265.72
2019-05-01T02:45:55.958Z,101262.22
2019-05-01T02:48:26.854Z,101266.13
2019-05-01T02:51:00.196Z,101256.55
2019-05-01T02:53:31.172Z,101255.25
2019-05-01T02:56:15.818Z,101254.80
2019-05-01T02:58:46.714Z,101255.69
2019-05-01T03:01:17.682Z,101256.11
2019-05-01T03:03:48.595Z,101247.37
2019-05-01T03:06:19.581Z,101249.12
2019-05-01T03:08:51.124Z,101244.34
2019-05-01T03:11:22.026Z,101247.81
2019-05-01T03:13:53.629Z,101250.87
2019-05-01T03:16:24.533Z,101246.95
2019-05-01T03:19:03.008Z,101246.95
2019-05-01T03:21:41.200Z,101245.20
2019-05-01T03:24:13.749Z,101249.09
2019-05-01T03:26:44.643Z,101249.54
2019-05-01T03:29:15.551Z,101251.74
2019-05-01T03:32:12.867Z,101249.54
2019-05-01T03:34:19.123Z,101256.08
2019-05-01T03:36:50.006Z,101258.71
2019-05-01T03:39:20.907Z,101253.03
2019-05-01T03:41:51.797Z,101243.00
2019-05-01T03:44:22.702Z,101246.50
2019-05-01T03:46:53.602Z,101254.79
2019-05-01T03:49:24.521Z,101248.66
2019-05-01T03:51:55.413Z,101243.84
2019-05-01T03:54:26.339Z,101242.98
2019-05-01T03:56:57.235Z,101249.09
2019-05-01T03:59:28.228Z,101245.20
2019-05-01T04:02:00.779Z,101246.06
2019-05-01T04:04:32.558Z,101247.34
2019-05-01T04:07:03.471Z,101242.58
2019-05-01T04:09:34.398Z,101248.23
2019-05-01T04:12:05.300Z,101243.86
2019-05-01T04:14:39.137Z,101248.23
2019-05-01T04:17:22.357Z,101255.62
2019-05-01T04:19:54.107Z,101245.62
2019-05-01T04:22:25.012Z,101241.27
2019-05-01T04:24:55.936Z,101239.53
2019-05-01T04:27:28.588Z,101243.43
2019-05-01T04:30:06.765Z,101244.31
2019-05-01T04:32:51.729Z,101250.41
2019-05-01T04:35:18.283Z,101247.37
2019-05-01T04:37:49.209Z,101248.19
2019-05-01T04:40:20.377Z,101252.56
2019-05-01T04:42:51.357Z,101247.31
2019-05-01T04:45:22.344Z,101245.14
2019-05-01T04:47:53.439Z,101246.49
2019-05-01T04:50:24.327Z,101247.35
2019-05-01T04:52:55.229Z,101248.61
2019-05-01T04:55:26.132Z,101253.02
2019-05-01T04:57:57.048Z,101248.64
2019-05-01T05:00:27.958Z,101249.50
2019-05-01T05:03:04.986Z,101241.67
2019-05-01T05:05:32.657Z,101255.17
2019-05-01T05:08:03.435Z,101253.88
2019-05-01T05:10:34.340Z,101249.09
2019-05-01T05:13:09.683Z,101254.32
2019-05-01T05:15:49.343Z,101254.77
2019-05-01T05:18:20.245Z,101250.83
2019-05-01T05:20:51.143Z,101256.50
2019-05-01T05:23:22.032Z,101255.58
2019-05-01T05:25:53.577Z,101257.78
2019-05-01T05:28:25.209Z,101260.42
2019-05-01T05:30:56.113Z,101259.97
2019-05-01T05:33:27.579Z,101262.96
2019-05-01T05:35:58.473Z,101269.54
2019-05-01T05:38:37.240Z,101273.42
2019-05-01T05:41:08.137Z,101270.77
2019-05-01T05:43:39.064Z,101268.16
2019-05-01T05:46:09.946Z,101264.70
2019-05-01T05:48:41.133Z,101277.76
2019-05-01T05:51:26.060Z,101271.66
2019-05-01T05:54:13.677Z,101278.66
2019-05-01T05:56:55.637Z,101271.65
2019-05-01T05:59:28.176Z,101279.08
2019-05-01T06:02:07.684Z,101270.84
2019-05-01T06:04:41.138Z,101273.87
2019-05-01T06:07:25.535Z,101276.49
2019-05-01T06:10:11.235Z,101275.61
2019-05-01T06:12:52.503Z,101277.37
2019-05-01T06:15:25.036Z,101280.01
2019-05-01T06:18:04.126Z,101277.40
2019-05-01T06:20:37.463Z,101273.05
2019-05-01T06:23:15.721Z,101274.80
2019-05-01T06:25:49.473Z,101273.50
2019-05-01T06:28:24.812Z,101276.55
2019-05-01T06:30:55.055Z,101274.34
2019-05-01T06:33:25.952Z,101276.13
2019-05-01T06:35:56.848Z,101272.19
2019-05-01T06:38:31.579Z,101270.89
2019-05-01T06:41:01.611Z,101275.70
2019-05-01T06:43:34.177Z,101267.84
2019-05-01T06:46:07.552Z,101263.52
2019-05-01T06:48:40.117Z,101266.98
2019-05-01T06:51:29.067Z,101267.84
2019-05-01T06:53:59.993Z,101269.17
2019-05-01T06:56:30.884Z,101256.56
2019-05-01T06:59:02.361Z,101262.66
2019-05-01T07:01:33.613Z,101255.24
2019-05-01T07:04:04.513Z,101261.31
2019-05-01T07:06:35.762Z,101261.32
2019-05-01T07:09:11.721Z,101260.47
2019-05-01T07:11:47.062Z,101263.06
2019-05-01T07:14:16.584Z,101261.76
2019-05-01T07:16:47.735Z,101256.07
2019-05-01T07:19:20.316Z,101259.55
2019-05-01T07:21:51.225Z,101260.42
2019-05-01T07:24:24.008Z,101259.13
2019-05-01T07:26:54.883Z,101257.37
2019-05-01T07:29:27.431Z,101259.56
2019-05-01T07:32:01.717Z,101252.56
2019-05-01T07:34:30.989Z,101256.45
2019-05-01T07:37:02.347Z,101258.22
2019-05-01T07:39:33.551Z,101257.25
2019-05-01T07:42:22.182Z,101259.30
2019-05-01T07:44:57.891Z,101254.09
2019-05-01T07:47:33.173Z,101248.30
2019-05-01T07:50:08.970Z,101250.37
2019-05-01T07:52:40.163Z,101247.00
2019-05-01T07:55:13.135Z,101245.20
2019-05-01T07:57:44.578Z,101249.19
2019-05-01T08:00:19.932Z,101241.62
2019-05-01T08:02:50.878Z,101243.06
2019-05-01T08:05:21.865Z,101236.14
2019-05-01T08:07:53.768Z,101237.46
2019-05-01T08:10:25.905Z,101235.53
2019-05-01T08:13:00.454Z,101243.41
2019-05-01T08:15:32.538Z,101238.72
2019-05-01T08:18:13.066Z,101236.87
2019-05-01T08:20:55.289Z,101228.91
2019-05-01T08:23:26.269Z,101243.58
2019-05-01T08:25:57.164Z,101231.59
2019-05-01T08:28:32.028Z,101234.63
2019-05-01T08:31:05.044Z,101234.68
2019-05-01T08:33:53.842Z,101230.66
2019-05-01T08:36:24.762Z,101232.92
2019-05-01T08:38:55.769Z,101233.36
2019-05-01T08:41:27.139Z,101242.92
2019-05-01T08:43:59.274Z,101242.45
2019-05-01T08:46:34.464Z,101235.27
2019-05-01T08:49:15.947Z,101224.83
2019-05-01T08:51:46.877Z,101230.45
2019-05-01T08:54:17.780Z,101226.98
2019-05-01T08:56:53.034Z,101224.84
2019-05-01T08:59:24.126Z,101230.14
2019-05-01T09:02:08.531Z,101220.95
2019-05-01T09:04:30.352Z,101212.16
2019-05-01T09:06:59.174Z,101209.13
2019-05-01T09:09:30.088Z,101204.25
2019-05-01T09:12:00.985Z,101201.56
2019-05-01T09:14:35.162Z,101204.64
2019-05-01T09:17:04.513Z,101208.64
2019-05-01T09:19:35.438Z,101197.34
2019-05-01T09:22:06.339Z,101192.95
2019-05-01T09:24:37.242Z,101194.76
2019-05-01T09:27:23.716Z,101192.60
2019-05-01T09:29:58.400Z,101187.10
2019-05-01T09:32:29.396Z,101190.75
2019-05-01T09:35:00.325Z,101192.48
2019-05-01T09:37:31.222Z,101188.06
2019-05-01T09:40:04.022Z,101185.23
2019-05-01T09:42:36.963Z,101182.34
2019-05-01T09:45:07.962Z,101182.10
2019-05-01T09:47:38.937Z,101184.45
2019-05-01T09:50:10.133Z,101181.81
2019-05-01T09:52:45.187Z,101180.00
2019-05-01T09:55:24.860Z,101178.31
2019-05-01T09:57:55.959Z,101175.94
2019-05-01T10:00:31.146Z,101176.69
2019-05-01T10:03:02.085Z,101174.86
2019-05-01T10:05:33.452Z,101166.16
2019-05-01T10:08:05.435Z,101174.63
2019-05-01T10:10:37.082Z,101161.77
2019-05-01T10:13:08.143Z,101171.44
2019-05-01T10:15:39.033Z,101158.29
2019-05-01T10:18:10.936Z,101162.20
2019-05-01T10:20:41.829Z,101156.91
2019-05-01T10:23:14.993Z,101170.03
2019-05-01T10:25:49.499Z,101161.50
2019-05-01T10:28:35.022Z,101157.48
2019-05-01T10:31:11.979Z,101156.44
2019-05-01T10:33:44.289Z,101148.64
2019-05-01T10:36:32.905Z,101148.31
2019-05-01T10:39:06.166Z,101147.27
2019-05-01T10:41:41.063Z,101144.59
2019-05-01T10:44:09.709Z,101143.35
2019-05-01T10:46:40.608Z,101138.27
2019-05-01T10:49:11.524Z,101126.72
2019-05-01T10:51:42.699Z,101125.59
2019-05-01T10:54:13.597Z,101132.77
2019-05-01T10:56:44.531Z,101123.94
2019-05-01T10:59:15.430Z,101118.22
2019-05-01T11:01:53.720Z,101121.08
2019-05-01T11:04:24.692Z,101112.48
2019-05-01T11:06:55.616Z,101115.47
2019-05-01T11:09:26.548Z,101114.92
2019-05-01T11:11:57.514Z,101112.55
2019-05-01T11:14:28.413Z,101110.71
2019-05-01T11:16:59.342Z,101103.18
2019-05-01T11:19:30.249Z,101097.56
2019-05-01T11:22:01.158Z,101100.50
2019-05-01T11:24:32.085Z,101097.61
2019-05-01T11:27:02.980Z,101094.94
2019-05-01T11:29:33.906Z,101087.52
2019-05-01T11:32:16.578Z,101086.70
2019-05-01T11:34:49.142Z,101094.48
2019-05-01T11:37:28.791Z,101086.54
2019-05-01T11:40:04.701Z,101085.17
2019-05-01T11:42:35.651Z,101083.56
2019-05-01T11:45:10.872Z,101080.16
2019-05-01T11:47:41.767Z,101079.40
2019-05-01T11:50:13.136Z,101080.90
2019-05-01T11:52:44.117Z,101074.67
2019-05-01T11:55:15.057Z,101070.60
2019-05-01T11:57:46.040Z,101062.02
2019-05-01T12:00:18.795Z,101054.23
2019-05-01T12:02:49.702Z,101051.20
2019-05-01T12:05:20.618Z,101056.06
2019-05-01T12:07:51.539Z,101060.30
2019-05-01T12:10:22.440Z,101061.98
2019-05-01T12:12:53.611Z,101055.23
2019-05-01T12:15:24.514Z,101045.65
2019-05-01T12:17:55.412Z,101048.23
2019-05-01T12:20:26.338Z,101049.92
2019-05-01T12:22:57.253Z,101052.28
2019-05-01T12:25:28.155Z,101043.91
2019-05-01T12:27:59.058Z,101040.35
2019-05-01T12:30:29.972Z,101035.20
2019-05-01T12:33:01.183Z,101033.80
2019-05-01T12:35:32.092Z,101038.45
2019-05-01T12:38:04.665Z,101034.42
2019-05-01T12:40:35.566Z,101030.19
2019-05-01T12:43:06.458Z,101026.59
2019-05-01T12:45:37.361Z,101026.11
2019-05-01T12:48:08.601Z,101014.83
2019-05-01T12:50:39.498Z,101012.56
2019-05-01T12:53:14.904Z,101013.84
2019-05-01T12:55:56.521Z,101016.23
2019-05-01T12:58:27.430Z,101011.77
2019-05-01T13:00:58.321Z,101010.22
2019-05-01T13:03:29.221Z,101002.14
2019-05-01T13:06:00.123Z,100999.13
2019-05-01T13:08:31.031Z,100994.08
2019-05-01T13:11:01.932Z,100995.27
2019-05-01T13:13:33.403Z,100986.75
2019-05-01T13:16:04.304Z,100987.42
2019-05-01T13:18:35.209Z,100980.98
2019-05-01T13:21:06.118Z,100975.59
2019-05-01T13:23:37.033Z,100973.58
2019-05-01T13:26:09.580Z,100975.48
2019-05-01T13:28:44.813Z,100965.25
2019-05-01T13:31:17.373Z,100969.71
2019-05-01T13:33:48.274Z,100969.76
2019-05-01T13:36:19.194Z,100968.70
2019-05-01T13:38:50.097Z,100960.91
2019-05-01T13:41:21.016Z,100955.69
2019-05-01T13:43:51.982Z,100953.28
2019-05-01T13:46:22.953Z,100941.61
2019-05-01T13:48:53.867Z,100948.13
2019-05-01T13:51:24.793Z,100948.14
2019-05-01T13:53:55.695Z,100940.78
2019-05-01T13:56:26.618Z,100941.95
2019-05-01T13:58:57.669Z,100942.66
2019-05-01T14:01:28.595Z,100940.00
2019-05-01T14:03:59.495Z,100930.92
2019-05-01T14:06:30.414Z,100933.25
2019-05-01T14:09:01.762Z,100929.31
2019-05-01T14:11:32.694Z,100928.32
2019-05-01T14:33:14.558Z,100902.49
2019-05-01T14:35:45.480Z,100908.07
2019-05-01T14:38:16.391Z,100902.09
2019-05-01T14:40:47.309Z,100895.73
2019-05-01T14:43:18.215Z,100903.27
2019-05-01T14:45:49.202Z,100896.12
2019-05-01T14:48:20.348Z,100895.58
2019-05-01T14:50:51.274Z,100893.16
2019-05-01T14:53:22.187Z,100896.14
2019-05-01T14:55:53.369Z,100885.39
2019-05-01T14:58:24.275Z,100897.74
2019-05-01T15:00:55.194Z,100894.47
2019-05-01T15:03:26.109Z,100893.12
2019-05-01T15:05:57.031Z,100887.70
2019-05-01T15:08:27.972Z,100884.50
2019-05-01T15:10:58.882Z,100887.19
2019-05-01T15:13:38.512Z,100882.64
2019-05-01T15:16:11.090Z,100879.38
2019-05-01T15:18:46.538Z,100877.91
2019-05-01T15:21:17.466Z,100878.58
2019-05-01T15:23:53.588Z,100884.31
2019-05-01T15:26:20.987Z,100878.98
2019-05-01T15:28:51.894Z,100885.67
2019-05-01T15:31:22.808Z,100878.64
2019-05-01T15:33:54.471Z,100874.63
2019-05-01T15:36:25.376Z,100874.29
2019-05-01T15:38:57.026Z,100869.78
2019-05-01T15:41:45.691Z,100874.70
2019-05-01T15:44:17.356Z,100875.70
2019-05-01T15:46:48.268Z,100866.27
2019-05-01T15:49:19.193Z,100869.48
2019-05-01T15:51:50.101Z,100873.91
2019-05-01T15:54:21.006Z,100865.83
2019-05-01T15:56:51.919Z,100863.36
2019-05-01T15:59:22.837Z,100860.72
2019-05-01T16:01:53.817Z,100872.35
2019-05-01T16:04:24.730Z,100866.34
2019-05-01T16:06:55.638Z,100868.74
2019-05-01T16:09:26.628Z,100859.80
2019-05-01T16:12:14.239Z,100861.95
2019-05-01T16:14:45.927Z,100856.06
2019-05-01T16:17:16.843Z,100854.58
2019-05-01T16:19:48.224Z,100856.41
2019-05-01T16:22:19.146Z,100854.77
2019-05-01T16:24:50.097Z,100858.31
2019-05-01T16:27:20.977Z,100858.54
2019-05-01T16:29:51.889Z,100855.97
2019-05-01T16:32:22.807Z,100850.03
2019-05-01T16:34:53.708Z,100847.92
2019-05-01T16:37:24.645Z,100850.87
2019-05-01T16:40:15.460Z,100848.64
2019-05-01T16:42:46.365Z,100846.41
2019-05-01T16:45:17.371Z,100844.81
2019-05-01T16:47:48.292Z,100842.37
2019-05-01T16:50:19.195Z,100842.44
2019-05-01T16:52:50.273Z,100832.27
2019-05-01T16:55:21.214Z,100833.78
2019-05-01T16:57:52.129Z,100830.23
2019-05-01T17:00:45.952Z,100820.70
2019-05-01T17:03:18.523Z,100820.92
2019-05-01T17:05:53.709Z,100819.67
2019-05-01T17:08:36.074Z,100818.84
2019-05-01T17:11:01.564Z,100820.60
2019-05-01T17:13:32.486Z,100820.89
2019-05-01T17:16:03.455Z,100821.73
2019-05-01T17:18:34.464Z,100816.80
2019-05-01T17:21:05.542Z,100817.25
2019-05-01T17:23:36.458Z,100820.66
2019-05-01T17:26:07.405Z,100813.59
2019-05-01T17:28:38.348Z,100820.80
2019-05-01T17:31:09.257Z,100816.03
2019-05-01T17:33:40.172Z,100811.44
2019-05-01T17:36:11.076Z,100816.58
2019-05-01T17:38:49.406Z,100815.39
2019-05-01T17:41:14.616Z,100809.28
2019-05-01T17:43:49.473Z,100803.51
2019-05-01T17:46:18.337Z,100805.83
2019-05-01T17:48:49.255Z,100805.63
2019-05-01T17:51:20.173Z,100810.58
2019-05-01T17:53:51.082Z,100806.75
2019-05-01T17:56:27.989Z,100808.36
2019-05-01T17:58:54.632Z,100807.47
2019-05-01T18:01:32.574Z,100812.13
2019-05-01T18:04:13.279Z,100809.50
2019-05-01T18:06:46.637Z,100801.28
2019-05-01T18:09:18.688Z,100810.98
2019-05-01T18:11:52.149Z,100810.67
2019-05-01T18:14:22.239Z,100810.22
2019-05-01T18:16:53.711Z,100805.94
2019-05-01T18:19:24.684Z,100806.08
2019-05-01T18:21:59.942Z,100809.00
2019-05-01T18:24:48.513Z,100806.06
2019-05-01T18:27:26.786Z,100806.48
2019-05-01T18:29:59.800Z,100806.16
2019-05-01T18:32:36.526Z,100812.66
2019-05-01T18:35:08.882Z,100806.64
2019-05-01T18:37:53.916Z,100807.33
2019-05-01T18:40:26.503Z,100806.13
2019-05-01T18:42:57.430Z,100808.53
2019-05-01T18:45:53.936Z,100810.00
2019-05-01T18:48:24.902Z,100810.51
2019-05-01T18:50:56.384Z,100806.97
2019-05-01T18:53:27.431Z,100800.64
2019-05-01T18:56:01.314Z,100804.75
2019-05-01T18:58:30.969Z,100809.20
2019-05-01T19:01:04.092Z,100806.80
2019-05-01T19:03:37.119Z,100810.73
2019-05-01T19:06:08.516Z,100807.94
2019-05-01T19:08:39.446Z,100817.77
2019-05-01T19:11:12.718Z,100817.69
2019-05-01T19:13:43.271Z,100823.92
2019-05-01T19:16:14.207Z,100825.19
2019-05-01T19:18:45.123Z,100830.17
2019-05-01T19:21:17.719Z,100825.60
2019-05-01T19:23:48.652Z,100822.07
2019-05-01T19:26:19.584Z,100819.08
2019-05-01T19:28:50.505Z,100817.49
2019-05-01T19:31:21.578Z,100820.31
2019-05-01T19:33:52.550Z,100821.61
2019-05-01T19:36:23.472Z,100826.87
2019-05-01T19:38:54.395Z,100824.13
2019-05-01T19:41:25.319Z,100826.80
2019-05-01T19:43:56.262Z,100826.31
2019-05-01T19:46:27.175Z,100828.21
2019-05-01T19:48:58.100Z,100824.85
2019-05-01T19:51:29.030Z,100819.70
2019-05-01T19:53:59.982Z,100826.13
2019-05-01T19:56:30.870Z,100822.48
2019-05-01T19:59:01.922Z,100821.29
2019-05-01T20:01:32.807Z,100818.82
2019-05-01T20:04:03.716Z,100816.88
2019-05-01T20:06:38.559Z,100817.89
2019-05-01T20:09:07.436Z,100818.80
2019-05-01T20:11:38.346Z,100820.64
2019-05-01T20:14:09.281Z,100823.00
2019-05-01T20:16:40.189Z,100821.13
2019-05-01T20:19:11.116Z,100819.66
2019-05-01T20:21:42.036Z,100825.20
2019-05-01T20:24:13.408Z,100816.56
2019-05-01T20:26:44.348Z,100821.54
2019-05-01T20:29:17.642Z,100818.61
2019-05-01T20:31:50.770Z,100820.67
2019-05-01T20:34:20.656Z,100815.28
2019-05-01T20:36:51.546Z,100817.28
2019-05-01T20:39:23.946Z,100817.50
2019-05-01T20:41:55.078Z,100815.72
2019-05-01T20:44:26.002Z,100815.11
2019-05-01T20:46:58.441Z,100814.38
2019-05-01T20:49:29.517Z,100808.94
2019-05-01T20:52:00.441Z,100812.17
2019-05-01T20:54:31.351Z,100816.06
2019-05-01T20:57:03.927Z,100805.95
2019-05-01T20:59:38.805Z,100808.81
2019-05-01T21:02:08.263Z,100811.16
2019-05-01T21:04:41.660Z,100806.22
2019-05-01T21:07:15.668Z,100802.72
2019-05-01T21:09:56.791Z,100801.05
2019-05-01T21:12:23.653Z,100796.19
2019-05-01T21:14:54.540Z,100794.70
2019-05-01T21:17:25.453Z,100791.52
2019-05-01T21:19:56.370Z,100795.23
2019-05-01T21:22:27.274Z,100797.85
2019-05-01T21:24:58.197Z,100792.30
2019-05-01T21:27:29.102Z,100795.89
2019-05-01T21:30:00.181Z,100789.76
2019-05-01T21:32:31.103Z,100791.67
2019-05-01T21:35:02.016Z,100791.14
2019-05-01T21:37:33.702Z,100787.70
2019-05-01T21:40:07.089Z,100787.62
2019-05-01T21:42:37.996Z,100789.60
2019-05-01T21:45:08.910Z,100793.46
2019-05-01T21:47:39.827Z,100783.90
2019-05-01T21:50:10.730Z,100782.37
2019-05-01T21:52:43.629Z,100778.48
2019-05-01T21:55:14.260Z,100778.77
2019-05-01T21:57:49.920Z,100772.13
2019-05-01T22:00:20.000Z,100764.82
2019-05-01T22:02:50.437Z,100765.57
2019-05-01T22:05:21.350Z,100762.64
2019-05-01T22:07:52.337Z,100761.05
2019-05-01T22:10:26.699Z,100759.66
2019-05-01T22:12:55.881Z,100759.66
2019-05-01T22:15:30.844Z,100762.79
2019-05-01T22:18:14.897Z,100758.91
2019-05-01T22:20:53.617Z,100759.34
2019-05-01T22:23:32.074Z,100754.67
2019-05-01T22:26:03.011Z,100754.84
2019-05-01T22:28:36.144Z,100751.45
2019-05-01T22:31:24.838Z,100752.45
2019-05-01T22:33:57.414Z,100747.38
2019-05-01T22:36:28.329Z,100746.56
2019-05-01T22:39:02.295Z,100749.55
2019-05-01T22:41:32.046Z,100744.28
2019-05-01T22:44:03.221Z,100742.83
2019-05-01T22:46:39.040Z,100739.33
2019-05-01T22:49:07.171Z,100737.48
2019-05-01T22:51:38.073Z,100737.94
2019-05-01T22:54:09.009Z,100734.52
2019-05-01T22:56:39.941Z,100730.94
2019-05-01T22:59:12.152Z,100733.52
2019-05-01T23:01:44.689Z,100735.58
2019-05-01T23:04:17.108Z,100731.57
2019-05-01T23:06:48.263Z,100728.34
2019-05-01T23:09:23.518Z,100729.53
2019-05-01T23:11:52.634Z,100719.51
2019-05-01T23:14:24.728Z,100726.30
2019-05-01T23:16:58.665Z,100730.98
2019-05-01T23:19:29.902Z,100720.23
2019-05-01T23:22:00.823Z,100721.61
2019-05-01T23:24:31.726Z,100723.10
2019-05-01T23:27:02.655Z,100716.48
2019-05-01T23:29:33.654Z,100716.55
2019-05-01T23:32:06.403Z,100710.98
2019-05-01T23:34:37.335Z,100708.66
2019-05-01T23:37:08.233Z,100710.30
2019-05-01T23:39:40.277Z,100705.87
2019-05-01T23:42:11.753Z,100701.87
2019-05-01T23:44:44.140Z,100697.28
2019-05-01T23:47:15.174Z,100692.41
2019-05-01T23:49:47.757Z,100691.94
2019-05-01T23:52:18.812Z,100678.63
2019-05-01T23:54:49.786Z,100688.89
2019-05-01T23:57:20.744Z,100682.55
2019-05-01T23:59:51.653Z,100677.67
